createdAt,value
2023-05-22T00:01:56.685Z,6.57
2023-05-22T00:04:23.970Z,6.70
2023-05-22T00:06:50.806Z,6.82
2023-05-22T00:09:18.028Z,6.55
2023-05-22T00:11:45.124Z,7.10
2023-05-22T00:14:13.584Z,6.10
2023-05-22T00:16:41.157Z,7.13
2023-05-22T00:19:17.416Z,6.90
2023-05-22T00:21:44.435Z,6.78
2023-05-22T00:24:11.451Z,6.07
2023-05-22T00:26:38.333Z,7.28
2023-05-22T00:29:08.466Z,7.28
2023-05-22T00:31:35.281Z,7.10
2023-05-22T00:34:02.377Z,7.50
2023-05-22T00:36:29.295Z,7.28
2023-05-22T00:38:56.444Z,7.22
2023-05-22T00:41:23.704Z,7.00
2023-05-22T00:43:51.352Z,7.07
2023-05-22T00:46:21.580Z,6.75
2023-05-22T00:48:49.237Z,7.13
2023-05-22T00:51:16.213Z,6.72
2023-05-22T00:53:43.674Z,6.85
2023-05-22T00:56:10.606Z,8.18
2023-05-22T00:58:37.926Z,7.38
2023-05-22T01:01:07.715Z,7.07
2023-05-22T01:03:45.063Z,7.33
2023-05-22T01:06:16.030Z,6.78
2023-05-22T01:08:45.462Z,7.35
2023-05-22T01:11:28.462Z,7.55
2023-05-22T01:14:04.157Z,7.28
2023-05-22T01:16:48.770Z,7.88
2023-05-22T01:19:43.740Z,7.90
2023-05-22T01:22:50.014Z,7.03
2023-05-22T01:25:35.533Z,8.13
2023-05-22T01:28:27.251Z,6.47
2023-05-22T01:30:57.833Z,7.30
2023-05-22T01:33:26.489Z,7.77
2023-05-22T01:35:57.185Z,7.23
2023-05-22T01:38:25.400Z,7.45
2023-05-22T01:40:54.011Z,6.85
2023-05-22T01:43:21.351Z,7.63
2023-05-22T01:45:48.405Z,7.50
2023-05-22T01:48:15.980Z,7.50
2023-05-22T01:50:45.256Z,7.32
2023-05-22T01:53:19.759Z,7.07
2023-05-22T01:55:57.880Z,7.93
2023-05-22T01:58:34.280Z,7.57
2023-05-22T02:01:03.580Z,7.23
2023-05-22T02:03:32.207Z,7.55
2023-05-22T02:06:03.994Z,7.20
2023-05-22T02:08:31.794Z,7.33
2023-05-22T02:11:00.620Z,8.10
2023-05-22T02:13:28.255Z,8.67
2023-05-22T02:15:56.783Z,7.80
2023-05-22T02:18:31.087Z,8.38
2023-05-22T02:20:59.029Z,7.70
2023-05-22T02:23:29.467Z,7.70
2023-05-22T02:25:57.157Z,7.88
2023-05-22T02:28:24.207Z,8.10
2023-05-22T02:30:51.451Z,8.07
2023-05-22T02:33:18.656Z,7.93
2023-05-22T02:35:45.995Z,9.27
2023-05-22T02:38:12.988Z,9.03
2023-05-22T02:40:40.752Z,8.35
2023-05-22T02:43:08.017Z,8.53
2023-05-22T02:45:35.121Z,9.10
2023-05-22T02:48:03.554Z,8.63
2023-05-22T02:50:31.990Z,7.77
2023-05-22T02:52:58.727Z,8.30
2023-05-22T02:55:25.767Z,8.67
2023-05-22T02:57:52.505Z,8.13
2023-05-22T03:00:20.582Z,8.27
2023-05-22T03:02:47.432Z,7.45
2023-05-22T03:05:17.853Z,8.33
2023-05-22T03:07:47.406Z,8.13
2023-05-22T03:10:15.640Z,8.38
2023-05-22T03:12:42.563Z,8.25
2023-05-22T03:15:11.366Z,7.82
2023-05-22T03:17:40.451Z,8.38
2023-05-22T03:20:08.836Z,8.27
2023-05-22T03:22:36.078Z,8.80
2023-05-22T03:25:04.010Z,8.33
2023-05-22T03:27:30.734Z,8.43
2023-05-22T03:29:57.799Z,8.60
2023-05-22T03:32:24.660Z,8.57
2023-05-22T03:34:52.067Z,7.47
2023-05-22T03:37:18.819Z,8.10
2023-05-22T03:39:45.950Z,7.73
2023-05-22T03:42:38.982Z,8.07
2023-05-22T03:45:07.641Z,7.80
2023-05-22T03:47:34.455Z,7.83
2023-05-22T03:50:03.195Z,8.23
2023-05-22T03:52:30.017Z,7.70
2023-05-22T03:54:57.142Z,7.43
2023-05-22T03:57:23.883Z,7.80
2023-05-22T03:59:50.982Z,8.07
2023-05-22T04:02:18.076Z,8.00
2023-05-22T04:04:46.380Z,8.43
2023-05-22T04:07:13.492Z,8.18
2023-05-22T04:09:41.225Z,8.43
2023-05-22T04:12:08.727Z,9.10
2023-05-22T04:14:35.772Z,8.02
2023-05-22T04:17:02.594Z,8.02
2023-05-22T04:19:30.141Z,7.80
2023-05-22T04:21:58.316Z,8.00
2023-05-22T04:24:25.466Z,7.65
2023-05-22T04:26:52.296Z,7.95
2023-05-22T04:29:19.630Z,9.00
2023-05-22T04:31:46.479Z,8.98
2023-05-22T04:34:16.071Z,9.27
2023-05-22T04:36:45.251Z,10.98
2023-05-22T04:39:13.964Z,9.73
2023-05-22T04:41:41.445Z,10.95
2023-05-22T04:44:08.721Z,9.70
2023-05-22T04:46:36.073Z,10.30
2023-05-22T04:49:03.473Z,10.75
2023-05-22T04:51:31.394Z,10.05
2023-05-22T04:53:58.612Z,10.80
2023-05-22T04:56:35.353Z,10.25
2023-05-22T04:59:05.582Z,9.40
2023-05-22T05:01:35.207Z,9.82
2023-05-22T05:04:03.791Z,9.85
2023-05-22T05:06:30.895Z,8.98
2023-05-22T05:08:58.129Z,8.55
2023-05-22T05:11:25.153Z,8.95
2023-05-22T05:13:52.418Z,8.57
2023-05-22T05:16:19.292Z,9.23
2023-05-22T05:18:46.386Z,8.55
2023-05-22T05:21:13.631Z,8.63
2023-05-22T05:23:41.216Z,8.77
2023-05-22T05:26:08.352Z,8.18
2023-05-22T05:28:35.618Z,8.38
2023-05-22T05:31:03.185Z,8.00
2023-05-22T05:33:52.092Z,8.57
2023-05-22T05:36:46.837Z,8.05
2023-05-22T05:39:14.249Z,7.45
2023-05-22T05:41:41.166Z,7.53
2023-05-22T05:44:09.948Z,6.90
2023-05-22T05:46:37.723Z,7.35
2023-05-22T05:49:10.143Z,7.53
2023-05-22T05:51:38.837Z,7.18
2023-05-22T05:54:06.725Z,8.05
2023-05-22T05:56:34.294Z,7.78
2023-05-22T05:59:02.383Z,7.60
2023-05-22T06:01:52.103Z,8.23
2023-05-22T06:04:24.141Z,8.13
2023-05-22T06:06:53.198Z,7.15
2023-05-22T06:09:32.514Z,6.78
2023-05-22T06:12:16.056Z,6.88
2023-05-22T06:14:45.220Z,7.43
2023-05-22T06:17:13.308Z,8.38
2023-05-22T06:19:42.394Z,7.10
2023-05-22T06:22:09.781Z,7.53
2023-05-22T06:24:39.454Z,5.55
2023-05-22T06:27:12.065Z,6.20
2023-05-22T06:29:39.647Z,6.90
2023-05-22T06:32:07.806Z,6.97
2023-05-22T06:34:36.536Z,6.20
2023-05-22T06:37:03.759Z,6.70
2023-05-22T06:39:36.343Z,6.43
2023-05-22T06:42:13.364Z,6.47
2023-05-22T06:44:59.240Z,5.82
2023-05-22T06:47:34.908Z,5.80
2023-05-22T06:50:02.092Z,6.15
2023-05-22T06:52:28.923Z,6.00
2023-05-22T06:55:04.159Z,5.68
2023-05-22T06:57:31.926Z,5.88
2023-05-22T07:00:01.151Z,5.95
2023-05-22T07:02:46.385Z,5.05
2023-05-22T07:05:24.345Z,5.32
2023-05-22T07:07:57.406Z,4.68
2023-05-22T07:10:27.510Z,4.70
2023-05-22T07:12:55.959Z,4.43
2023-05-22T07:15:23.613Z,4.10
2023-05-22T07:17:53.528Z,4.03
2023-05-22T07:20:21.012Z,4.18
2023-05-22T07:22:59.840Z,4.40
2023-05-22T07:25:27.234Z,3.70
2023-05-22T07:27:55.867Z,3.58
2023-05-22T07:30:24.956Z,3.65
2023-05-22T07:32:51.982Z,2.97
2023-05-22T07:35:19.995Z,3.58
2023-05-22T07:37:46.851Z,4.10
2023-05-22T07:40:15.810Z,3.40
2023-05-22T07:42:42.625Z,3.35
2023-05-22T07:45:12.310Z,3.72
2023-05-22T07:47:39.842Z,3.33
2023-05-22T07:50:07.744Z,3.50
2023-05-22T07:52:37.651Z,3.95
2023-05-22T07:55:07.856Z,2.80
2023-05-22T07:57:38.492Z,2.65
2023-05-22T08:00:14.846Z,3.17
2023-05-22T08:02:41.822Z,2.75
2023-05-22T08:05:10.104Z,2.72
2023-05-22T08:07:37.416Z,2.90
2023-05-22T08:10:08.264Z,2.90
2023-05-22T08:12:35.481Z,2.42
2023-05-22T08:15:02.556Z,2.53
2023-05-22T08:17:29.484Z,2.88
2023-05-22T08:19:56.714Z,2.60
2023-05-22T08:22:23.521Z,2.90
2023-05-22T08:24:50.647Z,2.58
2023-05-22T08:27:17.485Z,2.85
2023-05-22T08:29:44.511Z,3.00
2023-05-22T08:32:11.374Z,2.95
2023-05-22T08:34:40.282Z,3.05
2023-05-22T08:37:07.233Z,3.38
2023-05-22T08:39:34.319Z,3.08
2023-05-22T08:42:03.236Z,2.92
2023-05-22T08:44:30.464Z,3.00
2023-05-22T08:47:00.221Z,3.60
2023-05-22T08:49:27.733Z,3.25
2023-05-22T08:51:59.890Z,3.22
2023-05-22T08:54:28.533Z,3.15
2023-05-22T08:56:57.252Z,3.50
2023-05-22T08:59:25.042Z,2.88
2023-05-22T09:01:55.167Z,3.28
2023-05-22T09:04:24.122Z,3.33
2023-05-22T09:06:51.840Z,3.05
2023-05-22T09:09:19.115Z,2.35
2023-05-22T09:11:45.997Z,2.50
2023-05-22T09:14:13.112Z,2.47
2023-05-22T09:16:47.255Z,2.83
2023-05-22T09:19:15.326Z,2.25
2023-05-22T09:21:43.242Z,2.95
2023-05-22T09:24:11.130Z,2.92
2023-05-22T09:26:41.259Z,3.40
2023-05-22T09:29:08.722Z,2.78
2023-05-22T09:31:41.926Z,2.97
2023-05-22T09:34:10.904Z,3.20
2023-05-22T09:36:37.630Z,2.95
2023-05-22T09:39:05.315Z,3.00
2023-05-22T09:41:37.127Z,3.03
2023-05-22T09:44:13.307Z,2.83
2023-05-22T09:46:41.665Z,2.92
2023-05-22T09:49:09.130Z,2.97
2023-05-22T09:51:38.257Z,2.80
2023-05-22T09:54:08.362Z,2.80
2023-05-22T09:56:39.850Z,2.75
2023-05-22T09:59:09.638Z,2.63
2023-05-22T10:01:38.972Z,2.33
2023-05-22T10:04:08.805Z,2.65
2023-05-22T10:06:37.074Z,2.75
2023-05-22T10:09:06.998Z,2.65
2023-05-22T10:11:34.506Z,2.78
2023-05-22T10:14:03.898Z,2.63
2023-05-22T10:16:31.480Z,2.25
2023-05-22T10:19:00.286Z,2.30
2023-05-22T10:21:29.651Z,2.50
2023-05-22T10:23:57.894Z,2.38
2023-05-22T10:26:26.058Z,2.33
2023-05-22T10:29:00.873Z,2.38
2023-05-22T10:31:46.144Z,2.85
2023-05-22T10:35:04.954Z,2.08
2023-05-22T10:37:59.530Z,2.30
2023-05-22T10:40:30.384Z,2.60
2023-05-22T10:42:59.350Z,2.30
2023-05-22T10:45:28.358Z,2.40
2023-05-22T10:48:08.780Z,2.35
2023-05-22T10:50:36.474Z,2.50
2023-05-22T10:53:25.891Z,2.58
2023-05-22T10:55:54.000Z,2.83
2023-05-22T10:58:31.369Z,2.45
2023-05-22T11:01:10.931Z,2.30
2023-05-22T11:04:14.358Z,3.03
2023-05-22T11:07:13.237Z,2.30
2023-05-22T11:09:48.899Z,2.50
2023-05-22T11:12:28.310Z,2.30
2023-05-22T11:14:58.399Z,2.30
2023-05-22T11:17:36.172Z,2.45
2023-05-22T11:20:05.563Z,2.60
2023-05-22T11:22:38.916Z,2.15
2023-05-22T11:25:11.655Z,2.05
2023-05-22T11:27:41.206Z,2.42
2023-05-22T11:30:09.616Z,2.58
2023-05-22T11:32:37.423Z,2.65
2023-05-22T11:35:10.690Z,2.20
2023-05-22T11:37:41.684Z,2.13
2023-05-22T11:40:09.884Z,2.55
2023-05-22T11:42:37.808Z,2.35
2023-05-22T11:45:05.608Z,2.20
2023-05-22T11:47:32.883Z,2.80
2023-05-22T11:50:01.520Z,2.50
2023-05-22T11:52:36.994Z,2.38
2023-05-22T11:55:08.028Z,2.17
2023-05-22T11:57:35.805Z,2.33
2023-05-22T12:00:06.449Z,2.75
2023-05-22T12:02:39.527Z,2.53
2023-05-22T12:05:10.122Z,2.20
2023-05-22T12:07:37.771Z,2.28
2023-05-22T12:10:07.196Z,2.58
2023-05-22T12:12:34.486Z,2.85
2023-05-22T12:15:01.323Z,2.47
2023-05-22T12:17:28.704Z,2.72
2023-05-22T12:19:55.613Z,2.35
2023-05-22T12:22:26.235Z,2.15
2023-05-22T12:24:53.156Z,2.00
2023-05-22T12:27:20.228Z,3.30
2023-05-22T12:29:47.038Z,2.55
2023-05-22T12:32:14.138Z,2.53
2023-05-22T12:34:45.649Z,2.90
2023-05-22T12:37:25.229Z,2.40
2023-05-22T12:39:56.835Z,2.20
2023-05-22T12:42:25.046Z,2.08
2023-05-22T12:44:56.614Z,2.42
2023-05-22T12:47:25.373Z,2.60
2023-05-22T12:49:52.568Z,2.03
2023-05-22T12:52:19.674Z,2.50
2023-05-22T12:54:46.454Z,2.50
2023-05-22T12:57:13.845Z,2.85
2023-05-22T12:59:41.172Z,2.50
2023-05-22T13:02:09.460Z,2.17
2023-05-22T13:04:36.322Z,2.45
2023-05-22T13:07:03.369Z,2.28
2023-05-22T13:09:30.526Z,2.20
2023-05-22T13:11:57.573Z,2.78
2023-05-22T13:14:24.448Z,2.13
2023-05-22T13:16:51.503Z,2.40
2023-05-22T13:19:18.409Z,2.80
2023-05-22T13:21:45.649Z,3.03
2023-05-22T13:24:12.453Z,2.17
2023-05-22T13:26:39.490Z,2.08
2023-05-22T13:29:06.602Z,2.75
2023-05-22T13:31:37.316Z,2.17
2023-05-22T13:34:04.933Z,2.10
2023-05-22T13:36:32.651Z,2.50
2023-05-22T13:38:59.565Z,2.42
2023-05-22T13:41:26.774Z,2.40
2023-05-22T13:43:53.729Z,2.35
2023-05-22T13:46:22.111Z,2.58
2023-05-22T13:48:49.246Z,3.00
2023-05-22T13:51:16.620Z,2.50
2023-05-22T13:53:43.424Z,2.20
2023-05-22T13:56:10.681Z,2.58
2023-05-22T13:58:38.194Z,2.17
2023-05-22T14:01:06.531Z,2.63
2023-05-22T14:03:33.730Z,2.45
2023-05-22T14:06:01.146Z,2.20
2023-05-22T14:08:27.923Z,2.03
2023-05-22T14:10:55.033Z,2.30
2023-05-22T14:13:21.934Z,2.53
2023-05-22T14:15:49.394Z,2.35
2023-05-22T14:18:16.644Z,2.30
2023-05-22T14:20:44.453Z,2.20
2023-05-22T14:23:12.272Z,2.42
2023-05-22T14:25:43.148Z,2.30
2023-05-22T14:28:11.331Z,2.28
2023-05-22T14:30:39.099Z,2.38
2023-05-22T14:33:06.490Z,3.00
2023-05-22T14:35:33.893Z,2.58
2023-05-22T14:38:01.522Z,2.47
2023-05-22T14:40:28.808Z,2.38
2023-05-22T14:42:55.871Z,2.28
2023-05-22T14:45:23.043Z,2.05
2023-05-22T14:47:50.058Z,2.58
2023-05-22T14:50:20.369Z,2.90
2023-05-22T14:52:49.033Z,2.53
2023-05-22T14:55:17.116Z,2.50
2023-05-22T14:57:44.044Z,2.30
2023-05-22T15:00:12.260Z,2.80
2023-05-22T15:02:39.974Z,2.65
2023-05-22T15:05:07.990Z,2.85
2023-05-22T15:07:43.889Z,2.42
2023-05-22T15:10:12.857Z,2.22
2023-05-22T15:12:39.816Z,2.38
2023-05-22T15:15:07.456Z,2.50
2023-05-22T15:17:34.369Z,2.50
2023-05-22T15:20:01.481Z,2.65
2023-05-22T15:22:28.213Z,2.55
2023-05-22T15:25:09.683Z,2.17
2023-05-22T15:27:36.483Z,2.63
2023-05-22T15:30:04.477Z,2.28
2023-05-22T15:32:33.018Z,2.53
2023-05-22T15:35:00.440Z,2.35
2023-05-22T15:37:29.054Z,2.30
2023-05-22T15:39:57.665Z,2.20
2023-05-22T15:42:24.629Z,2.33
2023-05-22T15:44:51.661Z,2.65
2023-05-22T15:47:18.400Z,2.75
2023-05-22T15:49:45.850Z,2.55
2023-05-22T15:52:13.021Z,2.95
2023-05-22T15:54:40.113Z,2.78
2023-05-22T15:57:07.056Z,3.17
2023-05-22T15:59:34.132Z,2.63
2023-05-22T16:02:00.911Z,2.63
2023-05-22T16:04:28.060Z,2.60
2023-05-22T16:06:54.831Z,2.40
2023-05-22T16:09:22.025Z,2.55
2023-05-22T16:11:49.325Z,2.70
2023-05-22T16:14:16.373Z,2.60
2023-05-22T16:16:43.771Z,2.90
2023-05-22T16:19:11.532Z,2.55
2023-05-22T16:21:38.801Z,3.25
2023-05-22T16:24:07.009Z,2.60
2023-05-22T16:26:33.986Z,2.55
2023-05-22T16:29:01.088Z,3.83
2023-05-22T16:31:28.703Z,2.75
2023-05-22T16:33:55.992Z,3.05
2023-05-22T16:36:23.757Z,3.00
2023-05-22T16:38:52.158Z,2.90
2023-05-22T16:41:18.905Z,2.92
2023-05-22T16:43:46.040Z,2.63
2023-05-22T16:46:12.885Z,3.22
2023-05-22T16:48:39.907Z,3.28
2023-05-22T16:51:06.701Z,3.70
2023-05-22T16:53:34.368Z,2.55
2023-05-22T16:56:02.378Z,3.58
2023-05-22T16:58:29.440Z,3.20
2023-05-22T17:00:56.418Z,3.30
2023-05-22T17:03:23.578Z,3.65
2023-05-22T17:05:50.505Z,2.90
2023-05-22T17:08:17.626Z,3.10
2023-05-22T17:10:44.424Z,3.58
2023-05-22T17:13:19.575Z,2.72
2023-05-22T17:15:51.300Z,2.67
2023-05-22T17:18:22.418Z,3.15
2023-05-22T17:20:50.728Z,2.90
2023-05-22T17:23:17.930Z,2.25
2023-05-22T17:25:46.702Z,2.88
2023-05-22T17:28:15.046Z,2.50
2023-05-22T17:30:43.304Z,2.83
2023-05-22T17:33:11.030Z,3.20
2023-05-22T17:35:37.926Z,2.95
2023-05-22T17:38:04.981Z,2.80
2023-05-22T17:40:44.170Z,2.80
2023-05-22T17:43:13.944Z,3.45
2023-05-22T17:45:41.738Z,2.40
2023-05-22T17:48:08.975Z,3.05
2023-05-22T17:50:35.761Z,3.20
2023-05-22T17:53:03.242Z,3.40
2023-05-22T17:55:30.050Z,3.00
2023-05-22T17:57:57.317Z,2.67
2023-05-22T18:00:24.039Z,2.80
2023-05-22T18:02:51.242Z,2.90
2023-05-22T18:05:18.255Z,2.70
2023-05-22T18:07:45.337Z,3.20
2023-05-22T18:10:12.163Z,2.88
2023-05-22T18:12:39.377Z,2.63
2023-05-22T18:15:09.450Z,3.17
2023-05-22T18:17:36.748Z,3.22
2023-05-22T18:20:06.844Z,3.92
2023-05-22T18:22:38.408Z,4.85
2023-05-22T18:25:09.213Z,4.50
2023-05-22T18:27:36.468Z,3.38
2023-05-22T18:30:05.190Z,3.47
2023-05-22T18:32:32.563Z,3.10
2023-05-22T18:35:00.141Z,3.58
2023-05-22T18:37:27.136Z,3.30
2023-05-22T18:39:54.100Z,3.92
2023-05-22T18:42:21.363Z,4.20
2023-05-22T18:44:49.178Z,4.90
2023-05-22T18:47:16.968Z,3.63
2023-05-22T18:49:43.925Z,4.45
2023-05-22T18:52:11.039Z,4.50
2023-05-22T18:54:37.849Z,4.40
2023-05-22T18:57:04.965Z,4.95
2023-05-22T18:59:31.729Z,4.10
2023-05-22T19:01:58.769Z,4.60
2023-05-22T19:04:25.854Z,4.47
2023-05-22T19:06:53.818Z,3.83
2023-05-22T19:09:20.633Z,3.92
2023-05-22T19:11:47.740Z,5.40
2023-05-22T19:14:14.534Z,6.25
2023-05-22T19:16:43.057Z,6.30
2023-05-22T19:19:11.629Z,7.90
2023-05-22T19:21:38.932Z,7.50
2023-05-22T19:24:06.392Z,8.25
2023-05-22T19:26:33.632Z,11.38
2023-05-22T19:29:00.597Z,10.13
2023-05-22T19:31:30.804Z,9.63
2023-05-22T19:33:57.967Z,12.45
2023-05-22T19:36:25.011Z,8.55
2023-05-22T19:38:53.485Z,10.35
2023-05-22T19:41:22.797Z,11.32
2023-05-22T19:43:51.331Z,11.85
2023-05-22T19:46:18.481Z,9.82
2023-05-22T19:48:45.387Z,10.88
2023-05-22T19:51:12.423Z,9.30
2023-05-22T19:53:39.251Z,9.07
2023-05-22T19:56:06.621Z,7.70
2023-05-22T19:58:33.711Z,7.90
2023-05-22T20:01:00.755Z,8.32
2023-05-22T20:03:27.911Z,7.90
2023-05-22T20:05:54.907Z,5.07
2023-05-22T20:08:22.463Z,5.00
2023-05-22T20:10:49.511Z,5.57
2023-05-22T20:13:17.001Z,5.22
2023-05-22T20:15:47.545Z,6.15
2023-05-22T20:18:14.983Z,5.55
2023-05-22T20:20:41.780Z,5.97
2023-05-22T20:23:08.907Z,5.70
2023-05-22T20:25:36.165Z,5.53
2023-05-22T20:28:03.662Z,6.65
2023-05-22T20:30:31.307Z,6.00
2023-05-22T20:32:58.597Z,6.13
2023-05-22T20:35:26.458Z,6.68
2023-05-22T20:37:53.828Z,6.63
2023-05-22T20:40:20.820Z,5.75
2023-05-22T20:42:47.952Z,6.03
2023-05-22T20:45:15.649Z,5.88
2023-05-22T20:47:43.414Z,5.88
2023-05-22T20:50:11.160Z,6.68
2023-05-22T20:52:38.309Z,6.22
2023-05-22T20:55:06.667Z,5.78
2023-05-22T20:57:34.420Z,5.45
2023-05-22T21:00:01.514Z,5.50
2023-05-22T21:02:28.796Z,4.95
2023-05-22T21:04:56.067Z,5.20
2023-05-22T21:07:23.251Z,5.40
2023-05-22T21:09:50.146Z,5.55
2023-05-22T21:12:17.376Z,6.05
2023-05-22T21:14:44.328Z,5.80
2023-05-22T21:17:11.378Z,5.70
2023-05-22T21:19:38.277Z,6.38
2023-05-22T21:22:05.534Z,5.82
2023-05-22T21:24:32.636Z,5.95
2023-05-22T21:26:59.876Z,6.47
2023-05-22T21:29:26.712Z,6.55
2023-05-22T21:31:53.885Z,6.75
2023-05-22T21:34:20.871Z,6.50
2023-05-22T21:36:47.901Z,7.00
2023-05-22T21:39:14.653Z,7.50
2023-05-22T21:41:41.674Z,8.57
2023-05-22T21:44:09.919Z,8.02
2023-05-22T21:46:37.283Z,7.82
2023-05-22T21:49:05.980Z,7.32
2023-05-22T21:51:33.182Z,6.80
2023-05-22T21:53:59.925Z,6.40
2023-05-22T21:56:27.089Z,7.07
2023-05-22T21:58:53.897Z,6.65
2023-05-22T22:01:21.338Z,6.80
2023-05-22T22:03:48.174Z,7.22
2023-05-22T22:06:15.175Z,7.10
2023-05-22T22:08:42.001Z,5.88
2023-05-22T22:11:08.987Z,7.20
2023-05-22T22:13:36.412Z,6.63
2023-05-22T22:16:03.588Z,6.78
2023-05-22T22:18:34.860Z,6.68
2023-05-22T22:21:02.339Z,6.35
2023-05-22T22:23:29.701Z,7.15
2023-05-22T22:25:56.758Z,6.95
2023-05-22T22:28:23.538Z,7.53
2023-05-22T22:30:50.660Z,7.43
2023-05-22T22:33:17.917Z,6.93
2023-05-22T22:35:45.907Z,7.35
2023-05-22T22:38:12.737Z,7.78
2023-05-22T22:40:40.985Z,8.10
2023-05-22T22:43:07.949Z,6.93
2023-05-22T22:45:35.066Z,7.95
2023-05-22T22:48:01.856Z,7.50
2023-05-22T22:50:28.968Z,7.85
2023-05-22T22:52:55.706Z,8.77
2023-05-22T22:55:22.891Z,7.53
2023-05-22T22:57:50.207Z,7.75
2023-05-22T23:00:18.943Z,8.38
2023-05-22T23:02:46.382Z,8.10
2023-05-22T23:05:14.920Z,8.60
2023-05-22T23:07:41.801Z,8.50
2023-05-22T23:10:09.178Z,8.00
2023-05-22T23:12:36.298Z,7.78
2023-05-22T23:15:03.912Z,8.40
2023-05-22T23:17:30.854Z,8.40
2023-05-22T23:19:57.995Z,8.48
2023-05-22T23:22:24.764Z,7.68
2023-05-22T23:24:51.892Z,7.70
2023-05-22T23:27:18.829Z,8.05
2023-05-22T23:29:45.880Z,8.25
2023-05-22T23:32:14.732Z,8.23
2023-05-22T23:34:42.462Z,7.40
2023-05-22T23:37:09.984Z,8.05
2023-05-22T23:39:37.030Z,8.20
2023-05-22T23:42:03.985Z,8.48
2023-05-22T23:44:31.557Z,8.27
2023-05-22T23:46:58.353Z,8.10
2023-05-22T23:49:26.408Z,8.82
2023-05-22T23:51:53.397Z,9.18
2023-05-22T23:54:20.839Z,8.73
2023-05-22T23:56:47.618Z,8.80
2023-05-22T23:59:15.714Z,8.93
